EDDF/FRA METAR and TAF weather

Enter ICAO airport designator
Station Type Date Time Source
EDDF METAR 2021/03/04 23:50 UTC NOAA

EDDF 042350Z 31003KT 280V340 9999 -SHRA FEW008 SCT013TCU BKN040 04/02 Q1019 RESHRA NOSIG


Station Type Date Time Source
EDDF Decoded METAR 2021/03/04 23:50 UTC NOAA

Frankfurt / M-Flughafen, Germany (EDDF) 50-03N 008-36E 113M
Mar 04, 2021 - 06:50 PM EST / 2021.03.04 2350 UTC
Wind: from the NW (310 degrees) at 3 MPH (3 KT) (direction variable):0
Visibility: greater than 7 mile(s):0
Sky conditions: mostly cloudy
Weather: light rain showers; Towering cumulus clouds observed
Temperature: 39 F (4 C)
Dew Point: 35 F (2 C)
Relative Humidity: 86%
Pressure (altimeter): 30.09 in. Hg (1019 hPa)
ob: EDDF 042350Z 31003KT 280V340 9999 -SHRA FEW008 SCT013TCU BKN040 04/02 Q1019 RESHRA NOSIG
cycle: 0

Station Type Date Time Source
EDDF TAF 2021/03/04 18:37 UTC NOAA

TAF EDDF 041700Z 0418/0524 32008KT 9999 BKN025
TEMPO 0420/0503 4000 -RADZ BKN008
TEMPO 0503/0508 BKN012
BECMG 0504/0507 02009KT
BECMG 0511/0514 FEW030

Example: see airport list